Auburn, Maine
Current Conditions -  °F | °C
As of 4:15 PM on Wednesday 26 Nov 2014 (Local Time) from KLEW Reporting Station
Overcast Overcast  
Wind Chill: 24°   Ceiling: 400
Heat Index: 32°   Visibility: 1mi
Dew Point: 30°   Wind: 10mph
Humidity: 93%   Direction: 20°NNE
Pressure: 30.08"   Gusts: NA
Location:  44.1°N, 70.23°W
Report Text: KLEW 262115Z AUTO 02009KT 1SM OVC004 00/M01 A3008 RMK AO1
Loading
Personal Weather Stations






























Interactive Weather Map New forecast layout! Learn more

10-Day Weather Forecast

Advertisements
Track Severe Weather on mobile